createdAt,value
2022-10-02T00:01:17.952Z,10.63
2022-10-02T00:03:46.655Z,12.27
2022-10-02T00:06:18.255Z,10.77
2022-10-02T00:08:47.129Z,11.27
2022-10-02T00:11:18.716Z,10.50
2022-10-02T00:13:50.193Z,10.73
2022-10-02T00:16:24.178Z,10.02
2022-10-02T00:18:52.716Z,11.18
2022-10-02T00:21:29.993Z,10.43
2022-10-02T00:23:59.996Z,10.27
2022-10-02T00:26:30.869Z,10.40
2022-10-02T00:29:06.197Z,10.70
2022-10-02T00:31:38.078Z,11.05
2022-10-02T00:34:19.882Z,10.98
2022-10-02T00:36:50.184Z,11.40
2022-10-02T00:39:23.805Z,11.07
2022-10-02T00:42:13.212Z,10.38
2022-10-02T00:44:54.360Z,11.30
2022-10-02T00:47:29.227Z,10.73
2022-10-02T00:50:18.372Z,11.40
2022-10-02T00:52:51.712Z,9.88
2022-10-02T00:55:27.850Z,10.50
2022-10-02T00:58:03.114Z,10.80
2022-10-02T01:00:33.054Z,10.73
2022-10-02T01:03:06.570Z,10.13
2022-10-02T01:05:35.210Z,9.80
2022-10-02T01:08:04.231Z,10.77
2022-10-02T01:10:32.965Z,10.57
2022-10-02T01:13:01.454Z,10.63
2022-10-02T01:15:32.477Z,10.85
2022-10-02T01:18:03.468Z,10.85
2022-10-02T01:20:35.561Z,10.77
2022-10-02T01:23:07.168Z,10.40
2022-10-02T01:25:36.988Z,11.35
2022-10-02T01:28:05.739Z,11.00
2022-10-02T01:30:35.193Z,11.25
2022-10-02T01:33:04.730Z,10.95
2022-10-02T01:35:34.045Z,11.07
2022-10-02T01:38:04.008Z,10.70
2022-10-02T01:40:33.556Z,11.18
2022-10-02T01:43:05.205Z,10.55
2022-10-02T01:45:39.453Z,10.90
2022-10-02T01:48:12.130Z,10.90
2022-10-02T01:50:48.256Z,11.73
2022-10-02T01:53:22.221Z,11.52
2022-10-02T01:55:54.470Z,11.60
2022-10-02T01:58:27.345Z,11.80
2022-10-02T02:01:02.978Z,11.95
2022-10-02T02:03:38.896Z,12.40
2022-10-02T02:06:10.880Z,12.77
2022-10-02T02:08:46.876Z,12.32
2022-10-02T02:11:16.472Z,12.70
2022-10-02T02:13:49.202Z,13.07
2022-10-02T02:16:21.922Z,12.98
2022-10-02T02:18:53.408Z,13.10
2022-10-02T02:21:24.376Z,13.27
2022-10-02T02:23:53.981Z,13.80
2022-10-02T02:26:24.346Z,13.52
2022-10-02T02:28:55.965Z,14.88
2022-10-02T02:31:26.055Z,14.10
2022-10-02T02:33:57.371Z,14.82
2022-10-02T02:36:27.437Z,14.23
2022-10-02T02:38:58.552Z,13.50
2022-10-02T02:41:29.115Z,13.60
2022-10-02T02:44:01.686Z,14.57
2022-10-02T02:46:34.390Z,13.07
2022-10-02T02:49:06.097Z,13.45
2022-10-02T02:51:36.489Z,13.35
2022-10-02T02:54:06.765Z,12.32
2022-10-02T02:56:35.823Z,12.73
2022-10-02T02:59:08.800Z,13.40
2022-10-02T03:01:37.325Z,13.10
2022-10-02T03:04:05.777Z,13.52
2022-10-02T03:06:37.760Z,14.45
2022-10-02T03:09:07.540Z,13.07
2022-10-02T03:11:41.016Z,12.73
2022-10-02T03:14:17.336Z,12.63
2022-10-02T03:16:49.561Z,12.38
2022-10-02T03:19:27.772Z,12.55
2022-10-02T03:21:59.729Z,12.52
2022-10-02T03:24:31.003Z,12.65
2022-10-02T03:27:03.039Z,12.50
2022-10-02T03:29:36.148Z,12.15
2022-10-02T03:32:05.200Z,11.88
2022-10-02T03:34:34.254Z,11.93
2022-10-02T03:37:02.969Z,12.40
2022-10-02T03:39:31.416Z,12.25
2022-10-02T03:41:59.857Z,12.70
2022-10-02T03:44:28.375Z,12.55
2022-10-02T03:46:58.149Z,12.75
2022-10-02T03:49:26.545Z,13.20
2022-10-02T03:51:54.973Z,13.18
2022-10-02T03:54:23.718Z,12.63
2022-10-02T03:56:55.219Z,12.30
2022-10-02T03:59:31.607Z,12.65
2022-10-02T04:02:02.084Z,13.02
2022-10-02T04:04:32.032Z,12.07
2022-10-02T04:07:02.177Z,12.52
2022-10-02T04:09:33.533Z,12.88
2022-10-02T04:12:05.288Z,11.95
2022-10-02T04:14:37.300Z,11.70
2022-10-02T04:17:10.538Z,11.30
2022-10-02T04:19:41.270Z,10.55
2022-10-02T04:22:12.580Z,11.43
2022-10-02T04:24:42.835Z,10.90
2022-10-02T04:27:15.469Z,10.75
2022-10-02T04:29:46.996Z,10.77
2022-10-02T04:32:17.985Z,11.18
2022-10-02T04:34:46.407Z,11.02
2022-10-02T04:37:27.944Z,11.48
2022-10-02T04:40:02.878Z,11.13
2022-10-02T04:42:40.691Z,10.05
2022-10-02T04:45:19.159Z,10.77
2022-10-02T04:47:59.033Z,10.98
2022-10-02T04:50:33.537Z,11.35
2022-10-02T04:53:16.113Z,10.88
2022-10-02T04:55:53.864Z,11.02
2022-10-02T04:58:26.530Z,11.35
2022-10-02T05:01:01.653Z,11.68
2022-10-02T05:03:38.030Z,10.98
2022-10-02T05:06:25.089Z,11.40
2022-10-02T05:08:59.116Z,10.30
2022-10-02T05:11:41.245Z,10.70
2022-10-02T05:14:24.477Z,10.20
2022-10-02T05:16:59.723Z,9.88
2022-10-02T05:19:39.376Z,9.10
2022-10-02T05:22:16.923Z,8.85
2022-10-02T05:24:58.471Z,8.52
2022-10-02T05:27:44.732Z,9.40
2022-10-02T05:30:14.148Z,8.82
2022-10-02T05:32:51.125Z,8.60
2022-10-02T05:35:25.929Z,8.45
2022-10-02T05:37:59.444Z,7.78
2022-10-02T05:40:30.163Z,8.35
2022-10-02T05:43:04.080Z,8.55
2022-10-02T05:45:35.454Z,8.38
2022-10-02T05:48:06.645Z,8.98
2022-10-02T05:50:38.336Z,8.13
2022-10-02T05:53:11.049Z,8.27
2022-10-02T05:55:41.162Z,8.57
2022-10-02T05:58:13.421Z,8.07
2022-10-02T06:00:45.123Z,8.38
2022-10-02T06:03:16.402Z,7.68
2022-10-02T06:05:50.233Z,8.15
2022-10-02T06:08:22.401Z,7.90
2022-10-02T06:10:52.525Z,7.55
2022-10-02T06:13:24.288Z,7.32
2022-10-02T06:15:54.278Z,7.95
2022-10-02T06:18:24.682Z,5.78
2022-10-02T06:20:55.995Z,5.25
2022-10-02T06:23:26.850Z,4.63
2022-10-02T06:25:57.604Z,4.57
2022-10-02T06:28:28.710Z,5.65
2022-10-02T06:31:00.968Z,5.55
2022-10-02T06:33:32.933Z,5.43
2022-10-02T06:36:19.240Z,5.30
2022-10-02T06:38:58.517Z,4.63
2022-10-02T06:41:30.391Z,4.82
2022-10-02T06:44:08.045Z,4.82
2022-10-02T06:46:41.565Z,4.18
2022-10-02T06:49:13.641Z,4.25
2022-10-02T06:51:49.662Z,4.70
2022-10-02T06:54:23.031Z,4.63
2022-10-02T06:56:58.441Z,4.30
2022-10-02T06:59:31.272Z,5.15
2022-10-02T07:02:03.518Z,9.00
2022-10-02T07:04:42.222Z,6.20
2022-10-02T07:07:18.730Z,5.05
2022-10-02T07:10:08.340Z,4.43
2022-10-02T07:12:46.585Z,3.90
2022-10-02T07:15:28.512Z,4.07
2022-10-02T07:18:01.903Z,4.57
2022-10-02T07:20:34.642Z,4.00
2022-10-02T07:23:13.608Z,4.22
2022-10-02T07:25:45.960Z,4.35
2022-10-02T07:28:18.296Z,3.85
2022-10-02T07:30:52.714Z,4.05
2022-10-02T07:33:29.160Z,4.50
2022-10-02T07:36:02.372Z,4.88
2022-10-02T07:38:46.025Z,5.20
2022-10-02T07:41:35.939Z,4.57
2022-10-02T07:44:10.223Z,4.40
2022-10-02T07:46:42.873Z,5.00
2022-10-02T07:49:19.565Z,4.80
2022-10-02T07:51:51.965Z,4.75
2022-10-02T07:54:35.215Z,4.65
2022-10-02T07:57:11.145Z,5.00
2022-10-02T07:59:43.690Z,4.68
2022-10-02T08:02:20.078Z,4.28
2022-10-02T08:04:49.161Z,4.97
2022-10-02T08:07:17.697Z,5.15
2022-10-02T08:09:48.042Z,5.00
2022-10-02T08:12:20.752Z,5.32
2022-10-02T08:14:50.793Z,5.30
2022-10-02T08:17:27.552Z,4.75
2022-10-02T08:19:58.353Z,5.38
2022-10-02T08:22:28.367Z,4.65
2022-10-02T08:24:58.873Z,5.13
2022-10-02T08:27:31.176Z,4.97
2022-10-02T08:30:03.210Z,5.25
2022-10-02T08:32:34.914Z,4.70
2022-10-02T08:35:03.578Z,4.78
2022-10-02T08:37:37.500Z,5.20
2022-10-02T08:40:19.624Z,4.07
2022-10-02T08:43:09.904Z,5.00
2022-10-02T08:45:58.029Z,4.55
2022-10-02T08:48:41.325Z,4.90
2022-10-02T08:51:26.145Z,4.50
2022-10-02T08:54:12.087Z,4.35
2022-10-02T08:57:01.542Z,4.82
2022-10-02T08:59:51.343Z,4.70
2022-10-02T09:02:38.283Z,4.70
2022-10-02T09:05:24.429Z,4.55
2022-10-02T09:08:10.977Z,3.78
2022-10-02T09:10:52.337Z,3.42
2022-10-02T09:13:53.392Z,2.58
2022-10-02T09:16:30.191Z,2.40
2022-10-02T09:19:03.022Z,2.33
2022-10-02T09:21:49.400Z,2.33
2022-10-02T09:24:36.528Z,2.22
2022-10-02T09:27:20.602Z,2.20
2022-10-02T09:30:06.647Z,2.28
2022-10-02T09:33:04.229Z,2.30
2022-10-02T09:35:49.782Z,2.47
2022-10-02T09:38:39.154Z,2.50
2022-10-02T09:41:17.246Z,2.50
2022-10-02T09:43:56.384Z,2.47
2022-10-02T09:46:44.677Z,2.20
2022-10-02T09:49:43.452Z,2.60
2022-10-02T09:52:30.237Z,2.42
2022-10-02T09:55:14.998Z,2.35
2022-10-02T09:57:58.275Z,2.22
2022-10-02T10:00:39.436Z,2.42
2022-10-02T10:03:23.624Z,2.78
2022-10-02T10:06:01.385Z,3.00
2022-10-02T10:08:40.687Z,3.00
2022-10-02T10:11:22.421Z,3.20
2022-10-02T10:14:14.176Z,3.65
2022-10-02T10:16:56.175Z,3.97
2022-10-02T10:19:51.985Z,4.38
2022-10-02T10:22:35.219Z,4.00
2022-10-02T10:25:20.910Z,3.88
2022-10-02T10:27:59.587Z,4.68
2022-10-02T10:30:38.113Z,4.50
2022-10-02T10:33:21.369Z,4.32
2022-10-02T10:36:07.194Z,4.80
2022-10-02T10:38:46.273Z,5.05
2022-10-02T10:41:26.300Z,5.35
2022-10-02T10:44:27.801Z,4.70
2022-10-02T10:47:08.816Z,4.55
2022-10-02T10:50:02.568Z,4.00
2022-10-02T10:52:39.104Z,4.03
2022-10-02T10:55:13.464Z,4.22
2022-10-02T10:57:45.992Z,4.75
2022-10-02T11:00:19.767Z,5.30
2022-10-02T11:02:57.788Z,4.88
2022-10-02T11:05:44.138Z,5.38
2022-10-02T11:08:26.045Z,4.57
2022-10-02T11:11:00.783Z,4.78
2022-10-02T11:13:44.067Z,4.22
2022-10-02T11:16:25.271Z,4.35
2022-10-02T11:19:25.025Z,4.22
2022-10-02T11:22:09.592Z,3.90
2022-10-02T11:24:46.421Z,3.20
2022-10-02T11:27:25.119Z,3.25
2022-10-02T11:30:06.377Z,3.65
2022-10-02T11:32:54.194Z,3.45
2022-10-02T11:35:23.426Z,3.20
2022-10-02T11:38:10.579Z,2.92
2022-10-02T11:40:44.398Z,3.38
2022-10-02T11:43:39.444Z,3.33
2022-10-02T11:46:28.853Z,3.10
2022-10-02T11:49:07.610Z,3.45
2022-10-02T11:51:46.431Z,3.05
2022-10-02T11:54:21.624Z,3.20
2022-10-02T11:57:01.954Z,2.40
2022-10-02T11:59:44.577Z,2.63
2022-10-02T12:02:16.773Z,2.83
2022-10-02T12:04:52.307Z,2.50
2022-10-02T12:07:28.525Z,2.60
2022-10-02T12:10:05.254Z,2.63
2022-10-02T12:12:41.228Z,2.70
2022-10-02T12:15:15.475Z,3.22
2022-10-02T12:18:05.751Z,3.05
2022-10-02T12:21:02.416Z,3.63
2022-10-02T12:23:52.869Z,3.90
2022-10-02T12:26:49.712Z,3.90
2022-10-02T12:29:25.473Z,3.55
2022-10-02T12:31:55.286Z,3.42
2022-10-02T12:34:35.413Z,3.45
2022-10-02T12:37:06.182Z,3.53
2022-10-02T12:39:42.318Z,3.17
2022-10-02T12:42:26.816Z,3.42
2022-10-02T12:45:11.944Z,3.55
2022-10-02T12:47:55.408Z,3.80
2022-10-02T12:50:26.645Z,3.72
2022-10-02T12:53:13.586Z,4.47
2022-10-02T12:56:01.403Z,4.72
2022-10-02T12:58:35.896Z,4.25
2022-10-02T13:01:31.521Z,4.70
2022-10-02T13:04:17.131Z,5.05
2022-10-02T13:07:10.963Z,4.68
2022-10-02T13:09:46.714Z,4.82
2022-10-02T13:12:23.712Z,5.40
2022-10-02T13:15:11.725Z,4.78
2022-10-02T13:17:46.112Z,5.28
2022-10-02T13:20:21.696Z,5.85
2022-10-02T13:22:55.520Z,5.53
2022-10-02T13:25:34.595Z,6.57
2022-10-02T13:28:09.594Z,6.53
2022-10-02T13:30:40.964Z,6.55
2022-10-02T13:33:19.720Z,6.40
2022-10-02T13:35:54.737Z,6.68
2022-10-02T13:38:32.621Z,6.78
2022-10-02T13:41:06.580Z,6.53
2022-10-02T13:43:42.412Z,6.82
2022-10-02T13:46:14.904Z,7.38
2022-10-02T13:48:54.965Z,6.97
2022-10-02T13:51:26.116Z,7.53
2022-10-02T13:54:03.094Z,7.07
2022-10-02T13:56:36.049Z,7.47
2022-10-02T13:59:13.448Z,6.97
2022-10-02T14:01:49.753Z,6.63
2022-10-02T14:04:31.433Z,7.18
2022-10-02T14:07:05.798Z,6.72
2022-10-02T14:09:42.357Z,6.72
2022-10-02T14:12:25.910Z,7.72
2022-10-02T14:15:12.813Z,6.40
2022-10-02T14:17:48.044Z,7.03
2022-10-02T14:20:24.520Z,7.07
2022-10-02T14:23:04.563Z,7.47
2022-10-02T14:25:37.903Z,6.63
2022-10-02T14:28:20.197Z,6.97
2022-10-02T14:30:56.660Z,7.10
2022-10-02T14:33:29.956Z,6.65
2022-10-02T14:36:05.245Z,6.63
2022-10-02T14:38:38.349Z,6.65
2022-10-02T14:41:18.997Z,8.00
2022-10-02T14:43:58.592Z,6.90
2022-10-02T14:46:36.003Z,6.82
2022-10-02T14:49:18.084Z,6.78
2022-10-02T14:52:10.712Z,7.28
2022-10-02T14:54:50.500Z,6.82
2022-10-02T14:57:25.000Z,7.55
2022-10-02T15:00:11.330Z,7.13
2022-10-02T15:03:01.961Z,7.13
2022-10-02T15:05:41.397Z,7.50
2022-10-02T15:08:14.851Z,7.97
2022-10-02T15:10:43.642Z,8.85
2022-10-02T15:13:14.997Z,8.07
2022-10-02T15:15:45.128Z,7.32
2022-10-02T15:18:25.053Z,7.90
2022-10-02T15:21:00.526Z,7.80
2022-10-02T15:23:44.222Z,7.53
2022-10-02T15:26:21.247Z,7.97
2022-10-02T15:28:55.516Z,8.45
2022-10-02T15:31:27.691Z,8.20
2022-10-02T15:33:59.624Z,9.05
2022-10-02T15:36:38.957Z,8.82
2022-10-02T15:39:22.402Z,10.48
2022-10-02T15:41:57.460Z,10.35
2022-10-02T15:44:51.261Z,9.15
2022-10-02T15:47:26.291Z,8.73
2022-10-02T15:50:02.273Z,8.43
2022-10-02T15:52:34.912Z,7.78
2022-10-02T15:55:09.470Z,8.20
2022-10-02T15:57:44.072Z,8.52
2022-10-02T16:00:14.238Z,8.13
2022-10-02T16:02:57.377Z,8.32
2022-10-02T16:05:31.002Z,8.77
2022-10-02T16:08:07.493Z,9.30
2022-10-02T16:10:39.413Z,9.60
2022-10-02T16:13:18.040Z,9.32
2022-10-02T16:15:51.380Z,8.57
2022-10-02T16:18:25.597Z,8.40
2022-10-02T16:21:12.704Z,7.80
2022-10-02T16:24:04.974Z,8.35
2022-10-02T16:26:42.349Z,8.93
2022-10-02T16:29:19.128Z,8.32
2022-10-02T16:31:55.920Z,8.32
2022-10-02T16:34:30.827Z,8.73
2022-10-02T16:37:00.392Z,9.07
2022-10-02T16:39:44.840Z,8.98
2022-10-02T16:42:22.032Z,8.65
2022-10-02T16:45:04.711Z,7.82
2022-10-02T16:47:37.675Z,8.73
2022-10-02T16:50:15.109Z,10.02
2022-10-02T16:52:45.544Z,9.65
2022-10-02T16:55:20.709Z,10.52
2022-10-02T16:57:53.869Z,9.45
2022-10-02T17:00:25.471Z,9.77
2022-10-02T17:02:55.855Z,9.95
2022-10-02T17:05:28.207Z,9.98
2022-10-02T17:08:00.678Z,9.88
2022-10-02T17:10:39.425Z,10.07
2022-10-02T17:13:17.365Z,10.20
2022-10-02T17:15:48.636Z,9.80
2022-10-02T17:18:21.563Z,9.68
2022-10-02T17:20:51.676Z,10.15
2022-10-02T17:23:25.417Z,10.85
2022-10-02T17:25:55.694Z,11.43
2022-10-02T17:28:28.227Z,10.95
2022-10-02T17:31:01.278Z,10.95
2022-10-02T17:33:32.382Z,11.95
2022-10-02T17:36:03.601Z,12.90
2022-10-02T17:38:59.153Z,13.38
2022-10-02T17:41:35.684Z,12.43
2022-10-02T17:44:11.406Z,13.32
2022-10-02T17:46:50.752Z,14.20
2022-10-02T17:49:23.263Z,12.55
2022-10-02T17:51:58.161Z,12.95
2022-10-02T17:54:58.398Z,13.07
2022-10-02T17:57:33.186Z,12.95
2022-10-02T18:00:10.314Z,13.27
2022-10-02T18:03:00.533Z,12.98
2022-10-02T18:05:36.329Z,12.07
2022-10-02T18:08:16.595Z,12.35
2022-10-02T18:10:50.368Z,12.85
2022-10-02T18:13:27.376Z,11.95
2022-10-02T18:16:03.866Z,11.45
2022-10-02T18:18:35.046Z,11.55
2022-10-02T18:21:14.787Z,11.52
2022-10-02T18:23:56.549Z,11.68
2022-10-02T18:26:30.941Z,11.48
2022-10-02T18:29:04.776Z,11.68
2022-10-02T18:31:55.902Z,12.35
2022-10-02T18:34:43.997Z,11.40
2022-10-02T18:37:26.352Z,11.73
2022-10-02T18:40:06.136Z,11.82
2022-10-02T18:42:43.053Z,11.43
2022-10-02T18:45:17.001Z,11.65
2022-10-02T18:47:51.339Z,12.05
2022-10-02T18:50:37.133Z,13.52
2022-10-02T18:53:16.313Z,14.23
2022-10-02T18:55:57.190Z,13.88
2022-10-02T18:58:31.704Z,14.75
2022-10-02T19:01:09.804Z,14.10
2022-10-02T19:03:43.751Z,13.40
2022-10-02T19:06:14.806Z,13.45
2022-10-02T19:08:58.088Z,13.82
2022-10-02T19:11:28.942Z,12.45
2022-10-02T19:14:03.220Z,13.20
2022-10-02T19:16:31.938Z,12.43
2022-10-02T19:19:12.047Z,12.48
2022-10-02T19:21:40.527Z,12.98
2022-10-02T19:24:09.701Z,12.63
2022-10-02T19:26:44.005Z,12.68
2022-10-02T19:29:21.501Z,13.88
2022-10-02T19:31:50.182Z,13.07
2022-10-02T19:34:25.676Z,14.48
2022-10-02T19:36:55.468Z,15.15
2022-10-02T19:39:25.987Z,14.77
2022-10-02T19:41:56.006Z,13.80
2022-10-02T19:44:27.345Z,14.68
2022-10-02T19:46:56.718Z,14.20
2022-10-02T19:49:28.368Z,15.75
2022-10-02T19:51:57.080Z,15.15
2022-10-02T19:54:28.201Z,15.77
2022-10-02T19:56:58.701Z,17.25
2022-10-02T19:59:29.427Z,15.13
2022-10-02T20:01:59.997Z,14.20
2022-10-02T20:04:31.461Z,15.05
2022-10-02T20:07:00.655Z,16.45
2022-10-02T20:09:31.970Z,22.52
2022-10-02T20:12:02.910Z,21.52
2022-10-02T20:14:33.124Z,18.70
2022-10-02T20:17:09.792Z,15.80
2022-10-02T20:19:42.461Z,16.83
2022-10-02T20:22:15.357Z,18.63
2022-10-02T20:24:50.666Z,23.85
2022-10-02T20:27:20.460Z,21.52
2022-10-02T20:29:51.995Z,21.38
2022-10-02T20:32:22.556Z,19.25
2022-10-02T20:34:55.804Z,19.75
2022-10-02T20:37:26.257Z,18.27
2022-10-02T20:40:00.039Z,15.38
2022-10-02T20:42:33.159Z,13.75
2022-10-02T20:45:01.548Z,14.38
2022-10-02T20:47:41.111Z,13.70
2022-10-02T20:50:24.380Z,13.23
2022-10-02T20:53:07.647Z,13.27
2022-10-02T20:55:43.396Z,13.50
2022-10-02T20:58:22.112Z,14.25
2022-10-02T21:00:55.867Z,13.90
2022-10-02T21:03:27.701Z,13.50
2022-10-02T21:06:10.784Z,13.48
2022-10-02T21:08:47.982Z,13.18
2022-10-02T21:11:21.156Z,12.90
2022-10-02T21:14:10.967Z,13.30
2022-10-02T21:17:00.393Z,13.57
2022-10-02T21:19:37.496Z,13.57
2022-10-02T21:22:22.366Z,13.45
2022-10-02T21:25:18.217Z,13.18
2022-10-02T21:27:59.438Z,12.65
2022-10-02T21:30:31.087Z,13.05
2022-10-02T21:33:06.080Z,13.57
2022-10-02T21:35:40.564Z,14.00
2022-10-02T21:38:40.545Z,13.05
2022-10-02T21:41:19.615Z,13.70
2022-10-02T21:44:06.979Z,13.80
2022-10-02T21:46:56.317Z,13.93
2022-10-02T21:49:55.076Z,12.77
2022-10-02T21:52:35.949Z,12.75
2022-10-02T21:55:28.340Z,13.50
2022-10-02T21:58:26.845Z,12.82
2022-10-02T22:01:10.481Z,13.30
2022-10-02T22:03:53.847Z,13.50
2022-10-02T22:06:26.289Z,12.57
2022-10-02T22:09:03.566Z,12.60
2022-10-02T22:11:34.636Z,13.77
2022-10-02T22:14:07.232Z,14.02
2022-10-02T22:16:39.077Z,13.00
2022-10-02T22:19:17.721Z,12.85
2022-10-02T22:21:53.896Z,14.73
2022-10-02T22:24:34.897Z,13.88
2022-10-02T22:27:13.004Z,12.98
2022-10-02T22:29:45.929Z,13.15
2022-10-02T22:32:54.610Z,12.40
2022-10-02T22:35:27.473Z,12.98
2022-10-02T22:38:04.310Z,12.68
2022-10-02T22:40:40.320Z,13.13
2022-10-02T22:43:09.473Z,14.10
2022-10-02T22:45:41.300Z,13.98
2022-10-02T22:48:14.291Z,12.82
2022-10-02T22:50:48.155Z,14.88
2022-10-02T22:53:19.402Z,14.02
2022-10-02T22:55:50.006Z,13.80
2022-10-02T22:58:20.763Z,14.35
2022-10-02T23:00:56.617Z,14.50
2022-10-02T23:03:30.056Z,15.32
2022-10-02T23:06:02.500Z,15.40
2022-10-02T23:08:33.757Z,15.55
2022-10-02T23:11:08.224Z,14.88
2022-10-02T23:13:38.670Z,15.32
2022-10-02T23:16:08.636Z,15.20
2022-10-02T23:18:41.888Z,14.55
2022-10-02T23:21:22.100Z,14.80
2022-10-02T23:23:54.397Z,14.90
2022-10-02T23:26:29.673Z,14.38
2022-10-02T23:29:01.623Z,14.63
2022-10-02T23:31:33.528Z,13.98
2022-10-02T23:34:08.456Z,13.82
2022-10-02T23:36:39.533Z,14.45
2022-10-02T23:39:13.747Z,13.90
2022-10-02T23:41:48.334Z,13.30
2022-10-02T23:44:22.013Z,13.23
2022-10-02T23:47:14.814Z,13.52
2022-10-02T23:49:46.665Z,14.30
2022-10-02T23:52:32.899Z,14.32
2022-10-02T23:55:07.941Z,14.40
2022-10-02T23:57:45.123Z,14.38
